sensor_id;sensor_type;location;lat;lon;timestamp;P1;durP1;ratioP1;P2;durP2;ratioP2
48925;SDS011;39838;59.938;30.642;2023-06-26T00:00:31;9.82;;;7.90;;
48925;SDS011;39838;59.938;30.642;2023-06-26T00:02:58;9.60;;;7.60;;
48925;SDS011;39838;59.938;30.642;2023-06-26T00:05:25;9.93;;;7.60;;
48925;SDS011;39838;59.938;30.642;2023-06-26T00:07:55;12.30;;;7.57;;
48925;SDS011;39838;59.938;30.642;2023-06-26T00:10:27;11.82;;;7.68;;
48925;SDS011;39838;59.938;30.642;2023-06-26T00:12:54;9.60;;;7.22;;
48925;SDS011;39838;59.938;30.642;2023-06-26T00:15:22;9.20;;;7.28;;
48925;SDS011;39838;59.938;30.642;2023-06-26T00:17:49;10.05;;;7.53;;
48925;SDS011;39838;59.938;30.642;2023-06-26T00:20:16;10.48;;;7.47;;
48925;SDS011;39838;59.938;30.642;2023-06-26T00:22:44;8.48;;;7.25;;
48925;SDS011;39838;59.938;30.642;2023-06-26T00:25:11;12.43;;;8.00;;
48925;SDS011;39838;59.938;30.642;2023-06-26T00:27:40;13.55;;;8.23;;
48925;SDS011;39838;59.938;30.642;2023-06-26T00:30:07;9.10;;;7.65;;
48925;SDS011;39838;59.938;30.642;2023-06-26T00:32:35;10.05;;;8.60;;
48925;SDS011;39838;59.938;30.642;2023-06-26T00:35:03;10.52;;;8.27;;
48925;SDS011;39838;59.938;30.642;2023-06-26T00:37:31;13.10;;;8.30;;
48925;SDS011;39838;59.938;30.642;2023-06-26T00:39:58;12.18;;;9.00;;
48925;SDS011;39838;59.938;30.642;2023-06-26T00:42:25;12.30;;;8.90;;
48925;SDS011;39838;59.938;30.642;2023-06-26T00:44:54;12.95;;;9.13;;
48925;SDS011;39838;59.938;30.642;2023-06-26T00:47:21;11.43;;;9.02;;
48925;SDS011;39838;59.938;30.642;2023-06-26T00:49:48;13.13;;;9.38;;
48925;SDS011;39838;59.938;30.642;2023-06-26T00:52:15;12.52;;;9.18;;
48925;SDS011;39838;59.938;30.642;2023-06-26T00:54:43;11.57;;;9.18;;
48925;SDS011;39838;59.938;30.642;2023-06-26T00:57:11;14.18;;;9.20;;
48925;SDS011;39838;59.938;30.642;2023-06-26T00:59:38;12.20;;;9.82;;
48925;SDS011;39838;59.938;30.642;2023-06-26T01:02:07;12.18;;;9.60;;
48925;SDS011;39838;59.938;30.642;2023-06-26T01:04:35;13.10;;;9.90;;
48925;SDS011;39838;59.938;30.642;2023-06-26T01:07:02;11.57;;;9.73;;
48925;SDS011;39838;59.938;30.642;2023-06-26T01:09:33;14.48;;;9.90;;
48925;SDS011;39838;59.938;30.642;2023-06-26T01:12:00;12.32;;;10.18;;
48925;SDS011;39838;59.938;30.642;2023-06-26T01:14:28;14.65;;;9.43;;
48925;SDS011;39838;59.938;30.642;2023-06-26T01:16:55;11.23;;;9.63;;
48925;SDS011;39838;59.938;30.642;2023-06-26T01:19:26;12.82;;;9.38;;
48925;SDS011;39838;59.938;30.642;2023-06-26T01:21:56;13.00;;;9.50;;
48925;SDS011;39838;59.938;30.642;2023-06-26T01:24:31;17.58;;;9.63;;
48925;SDS011;39838;59.938;30.642;2023-06-26T01:27:04;11.82;;;9.80;;
48925;SDS011;39838;59.938;30.642;2023-06-26T01:29:33;15.10;;;9.63;;
48925;SDS011;39838;59.938;30.642;2023-06-26T01:32:00;12.75;;;10.13;;
48925;SDS011;39838;59.938;30.642;2023-06-26T01:34:27;12.18;;;10.32;;
48925;SDS011;39838;59.938;30.642;2023-06-26T01:36:56;13.82;;;10.45;;
48925;SDS011;39838;59.938;30.642;2023-06-26T01:39:23;14.25;;;10.02;;
48925;SDS011;39838;59.938;30.642;2023-06-26T01:41:51;11.45;;;9.38;;
48925;SDS011;39838;59.938;30.642;2023-06-26T01:44:23;12.82;;;10.30;;
48925;SDS011;39838;59.938;30.642;2023-06-26T01:46:55;14.35;;;10.02;;
48925;SDS011;39838;59.938;30.642;2023-06-26T01:49:28;12.23;;;10.38;;
48925;SDS011;39838;59.938;30.642;2023-06-26T01:52:02;12.25;;;10.50;;
48925;SDS011;39838;59.938;30.642;2023-06-26T01:54:37;14.40;;;9.60;;
48925;SDS011;39838;59.938;30.642;2023-06-26T01:57:09;13.93;;;10.27;;
48925;SDS011;39838;59.938;30.642;2023-06-26T01:59:38;11.63;;;9.73;;
48925;SDS011;39838;59.938;30.642;2023-06-26T02:02:08;10.98;;;9.32;;
48925;SDS011;39838;59.938;30.642;2023-06-26T02:04:36;12.05;;;9.60;;
48925;SDS011;39838;59.938;30.642;2023-06-26T02:07:03;12.32;;;9.93;;
48925;SDS011;39838;59.938;30.642;2023-06-26T02:09:30;11.02;;;9.82;;
48925;SDS011;39838;59.938;30.642;2023-06-26T02:11:58;10.98;;;9.80;;
48925;SDS011;39838;59.938;30.642;2023-06-26T02:14:25;11.23;;;9.30;;
48925;SDS011;39838;59.938;30.642;2023-06-26T02:16:54;14.70;;;9.73;;
48925;SDS011;39838;59.938;30.642;2023-06-26T02:19:21;13.27;;;9.98;;
48925;SDS011;39838;59.938;30.642;2023-06-26T02:22:08;14.07;;;9.40;;
48925;SDS011;39838;59.938;30.642;2023-06-26T02:24:35;11.70;;;9.32;;
48925;SDS011;39838;59.938;30.642;2023-06-26T02:27:03;13.60;;;9.77;;
48925;SDS011;39838;59.938;30.642;2023-06-26T02:29:30;13.40;;;9.52;;
48925;SDS011;39838;59.938;30.642;2023-06-26T02:31:59;14.23;;;10.38;;
48925;SDS011;39838;59.938;30.642;2023-06-26T02:34:26;12.95;;;10.13;;
48925;SDS011;39838;59.938;30.642;2023-06-26T02:36:54;13.45;;;9.95;;
48925;SDS011;39838;59.938;30.642;2023-06-26T02:39:21;14.93;;;10.40;;
48925;SDS011;39838;59.938;30.642;2023-06-26T02:41:49;13.45;;;10.48;;
48925;SDS011;39838;59.938;30.642;2023-06-26T02:44:16;14.35;;;10.50;;
48925;SDS011;39838;59.938;30.642;2023-06-26T02:46:43;13.23;;;10.43;;
48925;SDS011;39838;59.938;30.642;2023-06-26T02:49:12;14.15;;;10.38;;
48925;SDS011;39838;59.938;30.642;2023-06-26T02:51:39;13.75;;;10.57;;
48925;SDS011;39838;59.938;30.642;2023-06-26T02:54:06;13.77;;;10.10;;
48925;SDS011;39838;59.938;30.642;2023-06-26T02:56:33;11.18;;;9.38;;
48925;SDS011;39838;59.938;30.642;2023-06-26T02:59:00;12.80;;;9.50;;
48925;SDS011;39838;59.938;30.642;2023-06-26T03:01:27;15.25;;;9.90;;
48925;SDS011;39838;59.938;30.642;2023-06-26T03:03:55;13.82;;;9.70;;
48925;SDS011;39838;59.938;30.642;2023-06-26T03:06:23;12.35;;;8.95;;
48925;SDS011;39838;59.938;30.642;2023-06-26T03:08:50;13.45;;;9.30;;
48925;SDS011;39838;59.938;30.642;2023-06-26T03:11:18;12.63;;;9.45;;
48925;SDS011;39838;59.938;30.642;2023-06-26T03:13:45;10.48;;;9.15;;
48925;SDS011;39838;59.938;30.642;2023-06-26T03:16:13;12.55;;;9.23;;
48925;SDS011;39838;59.938;30.642;2023-06-26T03:18:40;10.57;;;9.48;;
48925;SDS011;39838;59.938;30.642;2023-06-26T03:21:07;13.73;;;9.75;;
48925;SDS011;39838;59.938;30.642;2023-06-26T03:23:36;13.52;;;8.85;;
48925;SDS011;39838;59.938;30.642;2023-06-26T03:26:04;10.90;;;9.10;;
48925;SDS011;39838;59.938;30.642;2023-06-26T03:28:31;11.75;;;9.05;;
48925;SDS011;39838;59.938;30.642;2023-06-26T03:30:58;12.13;;;9.00;;
48925;SDS011;39838;59.938;30.642;2023-06-26T03:33:26;12.15;;;8.60;;
48925;SDS011;39838;59.938;30.642;2023-06-26T03:35:53;12.30;;;9.30;;
48925;SDS011;39838;59.938;30.642;2023-06-26T03:38:21;9.57;;;8.43;;
48925;SDS011;39838;59.938;30.642;2023-06-26T03:40:50;11.65;;;8.98;;
48925;SDS011;39838;59.938;30.642;2023-06-26T03:43:18;18.92;;;9.10;;
48925;SDS011;39838;59.938;30.642;2023-06-26T03:45:45;17.55;;;8.80;;
48925;SDS011;39838;59.938;30.642;2023-06-26T03:48:12;12.45;;;8.73;;
48925;SDS011;39838;59.938;30.642;2023-06-26T03:50:39;11.38;;;8.30;;
48925;SDS011;39838;59.938;30.642;2023-06-26T03:53:06;11.15;;;8.75;;
48925;SDS011;39838;59.938;30.642;2023-06-26T03:55:33;11.68;;;8.27;;
48925;SDS011;39838;59.938;30.642;2023-06-26T03:58:02;15.07;;;8.27;;
48925;SDS011;39838;59.938;30.642;2023-06-26T04:00:29;14.43;;;8.82;;
48925;SDS011;39838;59.938;30.642;2023-06-26T04:02:56;14.77;;;8.18;;
48925;SDS011;39838;59.938;30.642;2023-06-26T04:05:24;11.63;;;7.80;;
48925;SDS011;39838;59.938;30.642;2023-06-26T04:07:51;14.43;;;7.95;;
48925;SDS011;39838;59.938;30.642;2023-06-26T04:10:18;9.18;;;7.60;;
48925;SDS011;39838;59.938;30.642;2023-06-26T04:12:46;11.55;;;7.40;;
48925;SDS011;39838;59.938;30.642;2023-06-26T04:15:15;9.98;;;7.43;;
48925;SDS011;39838;59.938;30.642;2023-06-26T04:17:42;9.10;;;7.05;;
48925;SDS011;39838;59.938;30.642;2023-06-26T04:20:09;10.18;;;7.13;;
48925;SDS011;39838;59.938;30.642;2023-06-26T04:22:37;12.93;;;7.38;;
48925;SDS011;39838;59.938;30.642;2023-06-26T04:25:05;9.93;;;6.97;;
48925;SDS011;39838;59.938;30.642;2023-06-26T04:27:32;11.00;;;6.93;;
48925;SDS011;39838;59.938;30.642;2023-06-26T04:30:00;9.55;;;6.53;;
48925;SDS011;39838;59.938;30.642;2023-06-26T04:32:31;9.48;;;7.20;;
48925;SDS011;39838;59.938;30.642;2023-06-26T04:34:58;9.85;;;7.15;;
48925;SDS011;39838;59.938;30.642;2023-06-26T04:37:25;9.75;;;7.50;;
48925;SDS011;39838;59.938;30.642;2023-06-26T04:39:53;9.20;;;6.95;;
48925;SDS011;39838;59.938;30.642;2023-06-26T04:42:20;9.10;;;7.40;;
48925;SDS011;39838;59.938;30.642;2023-06-26T04:44:47;11.35;;;8.10;;
48925;SDS011;39838;59.938;30.642;2023-06-26T04:47:14;9.20;;;7.05;;
48925;SDS011;39838;59.938;30.642;2023-06-26T04:49:43;8.75;;;6.43;;
48925;SDS011;39838;59.938;30.642;2023-06-26T04:52:11;8.75;;;6.30;;
48925;SDS011;39838;59.938;30.642;2023-06-26T04:54:39;7.18;;;6.00;;
48925;SDS011;39838;59.938;30.642;2023-06-26T04:57:06;10.07;;;6.28;;
48925;SDS011;39838;59.938;30.642;2023-06-26T04:59:35;8.50;;;6.47;;
48925;SDS011;39838;59.938;30.642;2023-06-26T05:02:02;10.48;;;6.30;;
48925;SDS011;39838;59.938;30.642;2023-06-26T05:04:30;10.35;;;6.50;;
48925;SDS011;39838;59.938;30.642;2023-06-26T05:06:59;9.57;;;6.53;;
48925;SDS011;39838;59.938;30.642;2023-06-26T05:09:26;10.95;;;6.60;;
48925;SDS011;39838;59.938;30.642;2023-06-26T05:11:53;11.00;;;7.10;;
48925;SDS011;39838;59.938;30.642;2023-06-26T05:14:20;11.80;;;6.47;;
48925;SDS011;39838;59.938;30.642;2023-06-26T05:16:47;9.50;;;6.00;;
48925;SDS011;39838;59.938;30.642;2023-06-26T05:19:15;9.23;;;6.20;;
48925;SDS011;39838;59.938;30.642;2023-06-26T05:21:42;10.60;;;6.40;;
48925;SDS011;39838;59.938;30.642;2023-06-26T05:24:11;8.55;;;6.57;;
48925;SDS011;39838;59.938;30.642;2023-06-26T05:26:40;9.50;;;6.53;;
48925;SDS011;39838;59.938;30.642;2023-06-26T05:29:08;9.15;;;6.63;;
48925;SDS011;39838;59.938;30.642;2023-06-26T05:31:35;10.32;;;6.90;;
48925;SDS011;39838;59.938;30.642;2023-06-26T05:34:07;9.50;;;5.93;;
48925;SDS011;39838;59.938;30.642;2023-06-26T05:36:38;9.02;;;5.95;;
48925;SDS011;39838;59.938;30.642;2023-06-26T05:39:06;10.02;;;5.93;;
48925;SDS011;39838;59.938;30.642;2023-06-26T05:41:35;14.77;;;5.80;;
48925;SDS011;39838;59.938;30.642;2023-06-26T05:44:03;8.52;;;6.03;;
48925;SDS011;39838;59.938;30.642;2023-06-26T05:46:30;10.38;;;5.60;;
48925;SDS011;39838;59.938;30.642;2023-06-26T05:48:57;9.93;;;5.40;;
48925;SDS011;39838;59.938;30.642;2023-06-26T05:51:25;11.15;;;5.30;;
48925;SDS011;39838;59.938;30.642;2023-06-26T05:53:52;9.00;;;5.63;;
48925;SDS011;39838;59.938;30.642;2023-06-26T05:56:20;8.85;;;5.15;;
48925;SDS011;39838;59.938;30.642;2023-06-26T05:58:49;8.05;;;5.32;;
48925;SDS011;39838;59.938;30.642;2023-06-26T06:01:17;7.55;;;5.60;;
48925;SDS011;39838;59.938;30.642;2023-06-26T06:03:45;8.90;;;5.88;;
48925;SDS011;39838;59.938;30.642;2023-06-26T06:06:12;11.43;;;5.25;;
48925;SDS011;39838;59.938;30.642;2023-06-26T06:08:41;7.78;;;5.57;;
48925;SDS011;39838;59.938;30.642;2023-06-26T06:11:08;7.63;;;5.70;;
48925;SDS011;39838;59.938;30.642;2023-06-26T06:13:35;7.60;;;5.18;;
48925;SDS011;39838;59.938;30.642;2023-06-26T06:16:04;11.50;;;5.85;;
48925;SDS011;39838;59.938;30.642;2023-06-26T06:18:31;11.88;;;6.30;;
48925;SDS011;39838;59.938;30.642;2023-06-26T06:20:58;9.48;;;5.93;;
48925;SDS011;39838;59.938;30.642;2023-06-26T06:23:26;7.53;;;5.88;;
48925;SDS011;39838;59.938;30.642;2023-06-26T06:25:54;7.63;;;6.15;;
48925;SDS011;39838;59.938;30.642;2023-06-26T06:28:21;7.55;;;5.60;;
48925;SDS011;39838;59.938;30.642;2023-06-26T06:30:48;7.72;;;5.97;;
48925;SDS011;39838;59.938;30.642;2023-06-26T06:33:17;8.77;;;6.05;;
48925;SDS011;39838;59.938;30.642;2023-06-26T06:35:44;8.40;;;6.10;;
48925;SDS011;39838;59.938;30.642;2023-06-26T06:38:11;8.85;;;6.10;;
48925;SDS011;39838;59.938;30.642;2023-06-26T06:40:38;7.75;;;5.75;;
48925;SDS011;39838;59.938;30.642;2023-06-26T06:43:05;13.10;;;5.90;;
48925;SDS011;39838;59.938;30.642;2023-06-26T06:45:32;10.63;;;6.20;;
48925;SDS011;39838;59.938;30.642;2023-06-26T06:47:59;7.57;;;6.38;;
48925;SDS011;39838;59.938;30.642;2023-06-26T06:50:28;7.38;;;5.80;;
48925;SDS011;39838;59.938;30.642;2023-06-26T06:52:55;12.43;;;6.07;;
48925;SDS011;39838;59.938;30.642;2023-06-26T06:55:23;11.95;;;6.15;;
48925;SDS011;39838;59.938;30.642;2023-06-26T06:57:51;8.07;;;6.00;;
48925;SDS011;39838;59.938;30.642;2023-06-26T07:00:18;8.45;;;6.03;;
48925;SDS011;39838;59.938;30.642;2023-06-26T07:02:46;9.57;;;6.15;;
48925;SDS011;39838;59.938;30.642;2023-06-26T07:05:13;9.52;;;6.32;;
48925;SDS011;39838;59.938;30.642;2023-06-26T07:07:41;7.53;;;5.45;;
48925;SDS011;39838;59.938;30.642;2023-06-26T07:10:09;7.90;;;6.00;;
48925;SDS011;39838;59.938;30.642;2023-06-26T07:12:37;7.45;;;5.55;;
48925;SDS011;39838;59.938;30.642;2023-06-26T07:15:05;7.30;;;5.50;;
48925;SDS011;39838;59.938;30.642;2023-06-26T07:17:34;6.63;;;5.38;;
48925;SDS011;39838;59.938;30.642;2023-06-26T07:20:03;9.90;;;5.70;;
48925;SDS011;39838;59.938;30.642;2023-06-26T07:22:32;12.45;;;5.88;;
48925;SDS011;39838;59.938;30.642;2023-06-26T07:25:01;6.80;;;5.75;;
48925;SDS011;39838;59.938;30.642;2023-06-26T07:27:29;11.35;;;6.65;;
48925;SDS011;39838;59.938;30.642;2023-06-26T07:29:56;8.70;;;5.95;;
48925;SDS011;39838;59.938;30.642;2023-06-26T07:32:23;8.65;;;5.72;;
48925;SDS011;39838;59.938;30.642;2023-06-26T07:34:51;6.57;;;5.72;;
48925;SDS011;39838;59.938;30.642;2023-06-26T07:37:18;7.03;;;5.30;;
48925;SDS011;39838;59.938;30.642;2023-06-26T07:39:45;6.78;;;5.47;;
48925;SDS011;39838;59.938;30.642;2023-06-26T07:42:13;13.27;;;5.55;;
48925;SDS011;39838;59.938;30.642;2023-06-26T07:44:41;7.57;;;4.95;;
48925;SDS011;39838;59.938;30.642;2023-06-26T07:47:09;7.68;;;5.20;;
48925;SDS011;39838;59.938;30.642;2023-06-26T07:49:36;7.57;;;4.70;;
48925;SDS011;39838;59.938;30.642;2023-06-26T07:52:04;6.78;;;4.78;;
48925;SDS011;39838;59.938;30.642;2023-06-26T07:54:32;8.60;;;5.05;;
48925;SDS011;39838;59.938;30.642;2023-06-26T07:56:59;6.63;;;5.10;;
48925;SDS011;39838;59.938;30.642;2023-06-26T07:59:29;9.43;;;5.50;;
48925;SDS011;39838;59.938;30.642;2023-06-26T08:01:57;7.82;;;5.05;;
48925;SDS011;39838;59.938;30.642;2023-06-26T08:04:25;6.82;;;5.10;;
48925;SDS011;39838;59.938;30.642;2023-06-26T08:06:54;9.57;;;5.03;;
48925;SDS011;39838;59.938;30.642;2023-06-26T08:09:23;7.20;;;5.30;;
48925;SDS011;39838;59.938;30.642;2023-06-26T08:11:52;7.05;;;5.18;;
48925;SDS011;39838;59.938;30.642;2023-06-26T08:14:19;6.10;;;4.90;;
48925;SDS011;39838;59.938;30.642;2023-06-26T08:16:48;5.65;;;5.05;;
48925;SDS011;39838;59.938;30.642;2023-06-26T08:19:16;9.60;;;5.53;;
48925;SDS011;39838;59.938;30.642;2023-06-26T08:21:44;5.80;;;4.95;;
48925;SDS011;39838;59.938;30.642;2023-06-26T08:24:12;9.07;;;5.35;;
48925;SDS011;39838;59.938;30.642;2023-06-26T08:26:41;6.45;;;4.63;;
48925;SDS011;39838;59.938;30.642;2023-06-26T08:29:08;7.03;;;5.05;;
48925;SDS011;39838;59.938;30.642;2023-06-26T08:31:35;6.53;;;5.30;;
48925;SDS011;39838;59.938;30.642;2023-06-26T08:34:04;8.48;;;5.13;;
48925;SDS011;39838;59.938;30.642;2023-06-26T08:36:32;6.18;;;5.18;;
48925;SDS011;39838;59.938;30.642;2023-06-26T08:38:59;9.18;;;5.47;;
48925;SDS011;39838;59.938;30.642;2023-06-26T08:41:26;6.32;;;5.22;;
48925;SDS011;39838;59.938;30.642;2023-06-26T08:43:54;9.18;;;5.28;;
48925;SDS011;39838;59.938;30.642;2023-06-26T08:46:21;8.40;;;5.10;;
48925;SDS011;39838;59.938;30.642;2023-06-26T08:48:49;8.05;;;5.25;;
48925;SDS011;39838;59.938;30.642;2023-06-26T08:51:23;9.77;;;5.20;;
48925;SDS011;39838;59.938;30.642;2023-06-26T08:53:53;7.65;;;5.15;;
48925;SDS011;39838;59.938;30.642;2023-06-26T08:56:24;11.05;;;5.57;;
48925;SDS011;39838;59.938;30.642;2023-06-26T08:58:54;8.60;;;5.40;;
48925;SDS011;39838;59.938;30.642;2023-06-26T09:01:22;7.10;;;5.57;;
48925;SDS011;39838;59.938;30.642;2023-06-26T09:03:50;8.85;;;5.28;;
48925;SDS011;39838;59.938;30.642;2023-06-26T09:06:18;7.75;;;5.70;;
48925;SDS011;39838;59.938;30.642;2023-06-26T09:08:46;7.97;;;5.50;;
48925;SDS011;39838;59.938;30.642;2023-06-26T09:11:13;7.00;;;5.70;;
48925;SDS011;39838;59.938;30.642;2023-06-26T09:13:41;13.55;;;6.18;;
48925;SDS011;39838;59.938;30.642;2023-06-26T09:16:09;7.32;;;5.70;;
48925;SDS011;39838;59.938;30.642;2023-06-26T09:18:37;7.82;;;5.55;;
48925;SDS011;39838;59.938;30.642;2023-06-26T09:21:07;8.35;;;5.70;;
48925;SDS011;39838;59.938;30.642;2023-06-26T09:23:35;10.25;;;6.15;;
48925;SDS011;39838;59.938;30.642;2023-06-26T09:26:04;8.65;;;5.70;;
48925;SDS011;39838;59.938;30.642;2023-06-26T09:28:32;13.88;;;5.75;;
48925;SDS011;39838;59.938;30.642;2023-06-26T09:31:01;7.70;;;5.55;;
48925;SDS011;39838;59.938;30.642;2023-06-26T09:33:32;9.63;;;5.70;;
48925;SDS011;39838;59.938;30.642;2023-06-26T09:36:04;7.47;;;5.97;;
48925;SDS011;39838;59.938;30.642;2023-06-26T09:38:33;7.25;;;5.32;;
48925;SDS011;39838;59.938;30.642;2023-06-26T09:41:01;7.57;;;5.75;;
48925;SDS011;39838;59.938;30.642;2023-06-26T09:43:30;8.02;;;5.40;;
48925;SDS011;39838;59.938;30.642;2023-06-26T09:45:58;7.43;;;5.63;;
48925;SDS011;39838;59.938;30.642;2023-06-26T09:48:25;9.60;;;5.75;;
48925;SDS011;39838;59.938;30.642;2023-06-26T09:50:55;8.23;;;5.82;;
48925;SDS011;39838;59.938;30.642;2023-06-26T09:53:22;8.60;;;5.53;;
48925;SDS011;39838;59.938;30.642;2023-06-26T09:55:49;8.48;;;5.45;;
48925;SDS011;39838;59.938;30.642;2023-06-26T09:58:16;7.07;;;5.50;;
48925;SDS011;39838;59.938;30.642;2023-06-26T10:00:46;7.45;;;5.22;;
48925;SDS011;39838;59.938;30.642;2023-06-26T10:03:13;8.55;;;5.57;;
48925;SDS011;39838;59.938;30.642;2023-06-26T10:05:40;10.52;;;5.45;;
48925;SDS011;39838;59.938;30.642;2023-06-26T10:08:09;7.40;;;5.38;;
48925;SDS011;39838;59.938;30.642;2023-06-26T10:10:39;8.32;;;5.00;;
48925;SDS011;39838;59.938;30.642;2023-06-26T10:13:08;7.15;;;5.32;;
48925;SDS011;39838;59.938;30.642;2023-06-26T10:15:41;8.75;;;5.70;;
48925;SDS011;39838;59.938;30.642;2023-06-26T10:18:13;7.55;;;5.25;;
48925;SDS011;39838;59.938;30.642;2023-06-26T10:20:42;8.35;;;5.13;;
48925;SDS011;39838;59.938;30.642;2023-06-26T10:23:11;11.80;;;5.47;;
48925;SDS011;39838;59.938;30.642;2023-06-26T10:25:41;10.88;;;4.90;;
48925;SDS011;39838;59.938;30.642;2023-06-26T10:28:10;12.73;;;5.05;;
48925;SDS011;39838;59.938;30.642;2023-06-26T10:30:40;5.82;;;4.50;;
48925;SDS011;39838;59.938;30.642;2023-06-26T10:33:11;12.48;;;5.00;;
48925;SDS011;39838;59.938;30.642;2023-06-26T10:35:42;11.35;;;4.80;;
48925;SDS011;39838;59.938;30.642;2023-06-26T10:38:10;8.50;;;4.82;;
48925;SDS011;39838;59.938;30.642;2023-06-26T10:40:40;7.60;;;4.95;;
48925;SDS011;39838;59.938;30.642;2023-06-26T10:43:10;11.75;;;5.30;;
48925;SDS011;39838;59.938;30.642;2023-06-26T10:45:43;9.75;;;4.85;;
48925;SDS011;39838;59.938;30.642;2023-06-26T10:48:12;7.28;;;4.90;;
48925;SDS011;39838;59.938;30.642;2023-06-26T10:50:41;8.88;;;4.60;;
48925;SDS011;39838;59.938;30.642;2023-06-26T10:53:12;7.03;;;5.05;;
48925;SDS011;39838;59.938;30.642;2023-06-26T10:55:47;7.47;;;4.72;;
48925;SDS011;39838;59.938;30.642;2023-06-26T10:58:28;7.30;;;4.78;;
48925;SDS011;39838;59.938;30.642;2023-06-26T11:03:46;9.70;;;4.87;;
48925;SDS011;39838;59.938;30.642;2023-06-26T11:06:16;14.07;;;5.32;;
48925;SDS011;39838;59.938;30.642;2023-06-26T11:08:45;8.63;;;4.85;;
48925;SDS011;39838;59.938;30.642;2023-06-26T11:11:13;5.93;;;4.70;;
48925;SDS011;39838;59.938;30.642;2023-06-26T11:13:41;10.77;;;5.15;;
48925;SDS011;39838;59.938;30.642;2023-06-26T11:16:08;11.90;;;5.68;;
48925;SDS011;39838;59.938;30.642;2023-06-26T11:18:37;9.65;;;5.25;;
48925;SDS011;39838;59.938;30.642;2023-06-26T11:21:07;7.07;;;5.20;;
48925;SDS011;39838;59.938;30.642;2023-06-26T11:23:35;7.03;;;5.25;;
48925;SDS011;39838;59.938;30.642;2023-06-26T11:26:15;17.63;;;5.40;;
48925;SDS011;39838;59.938;30.642;2023-06-26T11:28:47;6.20;;;4.97;;
48925;SDS011;39838;59.938;30.642;2023-06-26T11:31:27;6.28;;;4.85;;
48925;SDS011;39838;59.938;30.642;2023-06-26T11:33:56;7.45;;;5.28;;
48925;SDS011;39838;59.938;30.642;2023-06-26T11:36:25;14.18;;;5.30;;
48925;SDS011;39838;59.938;30.642;2023-06-26T11:38:53;8.75;;;5.05;;
48925;SDS011;39838;59.938;30.642;2023-06-26T11:41:21;7.13;;;5.50;;
48925;SDS011;39838;59.938;30.642;2023-06-26T11:43:49;9.80;;;5.25;;
48925;SDS011;39838;59.938;30.642;2023-06-26T11:46:18;7.05;;;5.30;;
48925;SDS011;39838;59.938;30.642;2023-06-26T11:48:46;7.10;;;5.40;;
48925;SDS011;39838;59.938;30.642;2023-06-26T11:51:13;6.60;;;4.65;;
48925;SDS011;39838;59.938;30.642;2023-06-26T11:53:42;7.30;;;5.18;;
48925;SDS011;39838;59.938;30.642;2023-06-26T11:56:10;7.63;;;5.00;;
48925;SDS011;39838;59.938;30.642;2023-06-26T12:01:24;7.65;;;5.18;;
48925;SDS011;39838;59.938;30.642;2023-06-26T12:03:54;7.70;;;5.45;;
48925;SDS011;39838;59.938;30.642;2023-06-26T12:06:25;12.13;;;5.50;;
48925;SDS011;39838;59.938;30.642;2023-06-26T12:08:54;9.98;;;5.38;;
48925;SDS011;39838;59.938;30.642;2023-06-26T12:11:22;7.63;;;5.20;;
48925;SDS011;39838;59.938;30.642;2023-06-26T12:13:50;13.88;;;5.70;;
48925;SDS011;39838;59.938;30.642;2023-06-26T12:16:18;8.98;;;5.22;;
48925;SDS011;39838;59.938;30.642;2023-06-26T12:18:46;8.27;;;5.43;;
48925;SDS011;39838;59.938;30.642;2023-06-26T12:21:28;12.15;;;5.45;;
48925;SDS011;39838;59.938;30.642;2023-06-26T12:24:13;8.63;;;6.07;;
48925;SDS011;39838;59.938;30.642;2023-06-26T12:26:46;7.55;;;5.32;;
48925;SDS011;39838;59.938;30.642;2023-06-26T12:29:17;7.85;;;4.75;;
48925;SDS011;39838;59.938;30.642;2023-06-26T12:31:45;7.47;;;4.10;;
48925;SDS011;39838;59.938;30.642;2023-06-26T12:34:17;17.27;;;4.38;;
48925;SDS011;39838;59.938;30.642;2023-06-26T12:36:46;12.93;;;5.28;;
48925;SDS011;39838;59.938;30.642;2023-06-26T12:39:16;10.52;;;4.90;;
48925;SDS011;39838;59.938;30.642;2023-06-26T12:41:45;10.27;;;5.72;;
48925;SDS011;39838;59.938;30.642;2023-06-26T12:44:17;11.45;;;6.25;;
48925;SDS011;39838;59.938;30.642;2023-06-26T12:46:45;10.93;;;6.70;;
48925;SDS011;39838;59.938;30.642;2023-06-26T12:49:13;11.75;;;6.65;;
48925;SDS011;39838;59.938;30.642;2023-06-26T12:51:41;9.30;;;6.20;;
48925;SDS011;39838;59.938;30.642;2023-06-26T12:54:08;11.15;;;7.10;;
48925;SDS011;39838;59.938;30.642;2023-06-26T12:56:37;12.60;;;6.93;;
48925;SDS011;39838;59.938;30.642;2023-06-26T12:59:04;9.10;;;6.88;;
48925;SDS011;39838;59.938;30.642;2023-06-26T13:01:31;10.02;;;6.90;;
48925;SDS011;39838;59.938;30.642;2023-06-26T13:03:59;9.25;;;6.93;;
48925;SDS011;39838;59.938;30.642;2023-06-26T13:06:26;10.07;;;6.70;;
48925;SDS011;39838;59.938;30.642;2023-06-26T13:08:53;10.40;;;7.53;;
48925;SDS011;39838;59.938;30.642;2023-06-26T13:11:21;11.85;;;7.05;;
48925;SDS011;39838;59.938;30.642;2023-06-26T13:13:49;8.98;;;7.43;;
48925;SDS011;39838;59.938;30.642;2023-06-26T13:16:16;11.93;;;7.10;;
48925;SDS011;39838;59.938;30.642;2023-06-26T13:18:45;9.32;;;7.30;;
48925;SDS011;39838;59.938;30.642;2023-06-26T13:21:12;11.27;;;6.75;;
48925;SDS011;39838;59.938;30.642;2023-06-26T13:23:40;10.13;;;6.63;;
48925;SDS011;39838;59.938;30.642;2023-06-26T13:26:07;7.88;;;6.30;;
48925;SDS011;39838;59.938;30.642;2023-06-26T13:28:35;10.05;;;6.38;;
48925;SDS011;39838;59.938;30.642;2023-06-26T13:31:03;8.73;;;6.28;;
48925;SDS011;39838;59.938;30.642;2023-06-26T13:33:31;9.68;;;6.35;;
48925;SDS011;39838;59.938;30.642;2023-06-26T13:35:58;8.85;;;6.18;;
48925;SDS011;39838;59.938;30.642;2023-06-26T13:38:25;11.07;;;5.93;;
48925;SDS011;39838;59.938;30.642;2023-06-26T13:40:52;9.98;;;6.22;;
48925;SDS011;39838;59.938;30.642;2023-06-26T13:43:21;11.02;;;6.35;;
48925;SDS011;39838;59.938;30.642;2023-06-26T13:45:48;9.57;;;5.93;;
48925;SDS011;39838;59.938;30.642;2023-06-26T13:48:17;8.68;;;6.10;;
48925;SDS011;39838;59.938;30.642;2023-06-26T13:50:44;10.15;;;6.20;;
48925;SDS011;39838;59.938;30.642;2023-06-26T13:53:12;9.82;;;6.13;;
48925;SDS011;39838;59.938;30.642;2023-06-26T13:55:40;7.18;;;5.68;;
48925;SDS011;39838;59.938;30.642;2023-06-26T13:58:07;9.05;;;5.75;;
48925;SDS011;39838;59.938;30.642;2023-06-26T14:00:35;10.23;;;5.50;;
48925;SDS011;39838;59.938;30.642;2023-06-26T14:03:03;8.77;;;5.57;;
48925;SDS011;39838;59.938;30.642;2023-06-26T14:05:33;7.78;;;5.00;;
48925;SDS011;39838;59.938;30.642;2023-06-26T14:08:01;6.07;;;4.90;;
48925;SDS011;39838;59.938;30.642;2023-06-26T14:10:30;10.73;;;5.32;;
48925;SDS011;39838;59.938;30.642;2023-06-26T14:12:59;9.07;;;5.35;;
48925;SDS011;39838;59.938;30.642;2023-06-26T14:15:26;6.65;;;5.45;;
48925;SDS011;39838;59.938;30.642;2023-06-26T14:17:54;7.47;;;5.18;;
48925;SDS011;39838;59.938;30.642;2023-06-26T14:20:21;6.88;;;5.30;;
48925;SDS011;39838;59.938;30.642;2023-06-26T14:22:51;6.95;;;5.63;;
48925;SDS011;39838;59.938;30.642;2023-06-26T14:25:18;7.70;;;5.53;;
48925;SDS011;39838;59.938;30.642;2023-06-26T14:27:45;6.10;;;5.38;;
48925;SDS011;39838;59.938;30.642;2023-06-26T14:30:12;8.20;;;5.32;;
48925;SDS011;39838;59.938;30.642;2023-06-26T14:32:40;8.77;;;5.40;;
48925;SDS011;39838;59.938;30.642;2023-06-26T14:35:07;8.93;;;5.70;;
48925;SDS011;39838;59.938;30.642;2023-06-26T14:37:35;6.55;;;5.65;;
48925;SDS011;39838;59.938;30.642;2023-06-26T14:40:07;8.77;;;5.40;;